Boons Camp, Kentucky
Current Conditions -  °F | °C
As of 9:55 PM on Friday 21 Nov 2014 (Local Time) from KSJS Reporting Station
Clear Clear  
Wind Chill: 30°   Ceiling: Unl
Heat Index: 30°   Visibility: 7mi
Dew Point: 12°   Wind: 0mph
Humidity: 47%   Direction: NA
Pressure: 30.42"   Gusts: NA
Location:  37.84°N, 82.7°W
Report Text: KSJS 220255Z AUTO 00000KT 7SM CLR M01/M11 A3042 RMK AO2 T10101112
Loading
Personal Weather Stations






























Interactive Weather Map New forecast layout! Learn more

10-Day Weather Forecast

Advertisements
Track Severe Weather on mobile